createdAt,value
2023-01-27T00:02:16.748Z,1.20
2023-01-27T00:07:18.442Z,0.90
2023-01-27T00:12:43.529Z,1.00
2023-01-27T00:17:45.269Z,1.00
2023-01-27T00:23:05.350Z,1.00
2023-01-27T00:28:08.550Z,0.90
2023-01-27T00:33:25.714Z,1.00
2023-01-27T00:38:32.602Z,0.90
2023-01-27T00:43:34.319Z,0.90
2023-01-27T00:48:36.525Z,0.80
2023-01-27T00:53:38.257Z,0.80
2023-01-27T00:58:40.212Z,0.90
2023-01-27T01:03:43.366Z,0.90
2023-01-27T01:08:45.641Z,0.90
2023-01-27T01:13:47.918Z,0.90
2023-01-27T01:18:50.083Z,0.90
2023-01-27T01:23:51.849Z,0.90
2023-01-27T01:28:53.746Z,1.00
2023-01-27T01:33:55.454Z,1.00
2023-01-27T01:38:58.364Z,1.00
2023-01-27T01:44:24.990Z,1.00
2023-01-27T01:49:32.578Z,0.80
2023-01-27T01:54:39.704Z,0.90
2023-01-27T01:59:46.667Z,0.80
2023-01-27T02:04:58.782Z,0.80
2023-01-27T02:10:02.734Z,0.80
2023-01-27T02:15:05.993Z,0.80
2023-01-27T02:20:31.709Z,0.80
2023-01-27T02:25:36.537Z,0.80
2023-01-27T02:30:38.395Z,0.90
2023-01-27T02:36:06.062Z,0.80
2023-01-27T02:41:34.203Z,0.80
2023-01-27T02:46:36.915Z,0.80
2023-01-27T02:51:39.436Z,0.70
2023-01-27T02:56:41.236Z,0.80
2023-01-27T03:01:43.002Z,0.70
2023-01-27T03:06:45.962Z,0.80
2023-01-27T03:12:06.387Z,0.70
2023-01-27T03:17:26.761Z,0.70
2023-01-27T03:22:33.072Z,0.70
2023-01-27T03:27:35.424Z,0.60
2023-01-27T03:32:37.284Z,0.60
2023-01-27T03:37:57.668Z,0.70
2023-01-27T03:43:18.412Z,0.70
2023-01-27T03:48:21.110Z,0.80
2023-01-27T03:53:22.837Z,0.80
2023-01-27T03:58:27.715Z,0.70
2023-01-27T04:03:53.512Z,0.70
2023-01-27T04:08:55.472Z,0.80
2023-01-27T04:14:01.038Z,0.70
2023-01-27T04:19:05.001Z,0.80
2023-01-27T04:24:17.468Z,0.80
2023-01-27T04:29:19.400Z,0.90
2023-01-27T04:34:21.601Z,0.90
2023-01-27T04:39:23.784Z,0.70
2023-01-27T04:44:25.812Z,0.70
2023-01-27T04:49:27.693Z,0.90
2023-01-27T04:54:29.604Z,0.80
2023-01-27T04:59:31.454Z,0.80
2023-01-27T05:04:33.376Z,0.80
2023-01-27T05:09:35.142Z,0.80
2023-01-27T05:14:36.910Z,0.90
2023-01-27T05:19:38.711Z,0.90
2023-01-27T05:24:41.206Z,1.00
2023-01-27T05:29:43.053Z,1.00
2023-01-27T05:34:45.047Z,1.00
2023-01-27T05:39:46.819Z,1.10
2023-01-27T05:44:50.646Z,1.10
2023-01-27T05:49:52.623Z,1.00
2023-01-27T05:54:54.364Z,1.10
2023-01-27T05:59:57.370Z,1.10
2023-01-27T06:04:59.357Z,1.00
2023-01-27T06:10:01.142Z,1.00
2023-01-27T06:15:04.089Z,1.00
2023-01-27T06:20:06.746Z,1.10
2023-01-27T06:25:08.841Z,1.10
2023-01-27T06:30:11.149Z,1.00
2023-01-27T06:35:13.351Z,1.00
2023-01-27T06:40:15.748Z,1.20
2023-01-27T06:45:17.991Z,1.30
2023-01-27T06:50:19.997Z,1.30
2023-01-27T06:55:23.899Z,1.20
2023-01-27T07:00:27.964Z,1.20
2023-01-27T07:05:30.283Z,1.30
2023-01-27T07:10:32.098Z,1.30
2023-01-27T07:15:34.406Z,1.20
2023-01-27T07:20:36.165Z,1.30
2023-01-27T07:25:39.179Z,1.40
2023-01-27T07:30:41.180Z,1.20
2023-01-27T07:35:43.147Z,1.30
2023-01-27T07:40:44.926Z,1.50
2023-01-27T07:45:48.996Z,1.40
2023-01-27T07:50:50.983Z,1.50
2023-01-27T07:55:53.021Z,1.70
2023-01-27T08:00:55.382Z,1.70
2023-01-27T08:05:57.153Z,1.90
2023-01-27T08:11:08.660Z,2.00
2023-01-27T08:16:13.764Z,1.90
2023-01-27T08:21:15.589Z,1.90
2023-01-27T08:26:17.427Z,2.00
2023-01-27T08:31:19.424Z,2.00
2023-01-27T08:36:24.538Z,2.20
2023-01-27T08:41:27.275Z,2.30
2023-01-27T08:46:29.055Z,2.10
2023-01-27T08:51:30.778Z,2.20
2023-01-27T08:56:32.592Z,2.40
2023-01-27T09:01:34.610Z,2.40
2023-01-27T09:06:36.484Z,2.40
2023-01-27T09:11:41.311Z,2.20
2023-01-27T09:16:43.096Z,2.30
2023-01-27T09:21:44.923Z,2.40
2023-01-27T09:26:47.140Z,2.40
2023-01-27T09:31:49.069Z,2.60
2023-01-27T09:36:59.093Z,2.50
2023-01-27T09:42:31.763Z,2.60
2023-01-27T09:47:51.037Z,2.60
2023-01-27T09:53:21.915Z,2.60
2023-01-27T09:58:47.132Z,2.80
2023-01-27T10:04:33.023Z,2.80
2023-01-27T10:09:51.590Z,2.60
2023-01-27T10:15:10.605Z,2.60
2023-01-27T10:20:26.897Z,2.70
2023-01-27T10:26:08.511Z,2.90
2023-01-27T10:31:26.805Z,2.80
2023-01-27T10:36:54.467Z,2.70
2023-01-27T10:42:25.051Z,2.60
2023-01-27T10:47:39.741Z,2.60
2023-01-27T10:52:59.008Z,2.60
2023-01-27T10:58:11.753Z,2.70
2023-01-27T11:03:25.652Z,2.70
2023-01-27T11:08:32.783Z,2.70
2023-01-27T11:13:35.689Z,3.00
2023-01-27T11:18:38.419Z,3.00
2023-01-27T11:23:43.403Z,2.90
2023-01-27T11:29:19.917Z,2.80
2023-01-27T11:34:49.999Z,2.70
2023-01-27T11:39:51.998Z,2.90
2023-01-27T11:44:56.398Z,3.00
2023-01-27T11:50:00.766Z,3.10
2023-01-27T11:55:20.881Z,3.40
2023-01-27T12:00:56.109Z,3.30
2023-01-27T12:06:04.503Z,3.40
2023-01-27T12:11:30.599Z,3.10
2023-01-27T12:16:48.214Z,3.00
2023-01-27T12:21:54.502Z,3.00
2023-01-27T12:26:57.619Z,3.30
2023-01-27T12:32:01.226Z,3.20
2023-01-27T12:37:07.638Z,3.20
2023-01-27T12:42:51.871Z,3.30
2023-01-27T12:48:02.726Z,3.10
2023-01-27T12:53:06.283Z,3.30
2023-01-27T12:58:26.578Z,3.30
2023-01-27T13:03:29.646Z,3.20
2023-01-27T13:08:34.566Z,3.20
2023-01-27T13:13:36.717Z,3.10
2023-01-27T13:18:39.676Z,3.30
2023-01-27T13:23:42.145Z,3.40
2023-01-27T13:28:55.507Z,3.60
2023-01-27T13:34:11.377Z,3.70
2023-01-27T13:39:43.598Z,3.60
2023-01-27T13:44:55.085Z,3.50
2023-01-27T13:50:16.482Z,3.50
2023-01-27T13:55:25.973Z,3.30
2023-01-27T14:00:46.265Z,3.20
2023-01-27T14:06:16.012Z,3.30
2023-01-27T14:11:29.409Z,3.30
2023-01-27T14:17:04.165Z,3.30
2023-01-27T14:22:34.116Z,3.50
2023-01-27T14:27:45.273Z,3.50
2023-01-27T14:33:01.971Z,3.50
2023-01-27T14:38:28.042Z,3.60
2023-01-27T14:43:40.311Z,3.60
2023-01-27T14:48:56.293Z,3.40
2023-01-27T14:54:22.654Z,3.40
2023-01-27T14:59:47.339Z,3.40
2023-01-27T15:05:22.692Z,3.30
2023-01-27T15:10:32.516Z,3.40
2023-01-27T15:15:56.171Z,3.40
2023-01-27T15:21:37.740Z,3.40
2023-01-27T15:26:42.172Z,3.40
2023-01-27T15:32:04.080Z,3.30
2023-01-27T15:37:21.105Z,3.30
2023-01-27T15:42:26.712Z,3.30
2023-01-27T15:47:35.396Z,3.30
2023-01-27T15:52:46.054Z,3.40
2023-01-27T15:57:52.342Z,3.40
2023-01-27T16:02:58.841Z,3.40
2023-01-27T16:08:03.073Z,3.40
2023-01-27T16:13:24.254Z,3.50
2023-01-27T16:18:40.773Z,3.50
2023-01-27T16:23:55.244Z,3.50
2023-01-27T16:29:19.331Z,3.50
2023-01-27T16:34:41.046Z,3.60
2023-01-27T16:40:07.051Z,3.50
2023-01-27T16:45:30.658Z,3.60
2023-01-27T16:50:44.523Z,3.60
2023-01-27T16:56:15.514Z,3.50
2023-01-27T17:01:40.920Z,3.60
2023-01-27T17:06:43.182Z,3.70
2023-01-27T17:11:45.147Z,3.80
2023-01-27T17:16:49.717Z,3.80
2023-01-27T17:22:17.664Z,3.60
2023-01-27T17:27:36.662Z,3.60
2023-01-27T17:32:42.005Z,3.50
2023-01-27T17:37:43.876Z,3.60
2023-01-27T17:42:46.205Z,3.60
2023-01-27T17:47:48.481Z,3.60
2023-01-27T17:52:53.154Z,3.50
2023-01-27T17:58:03.684Z,3.50
2023-01-27T18:03:34.573Z,3.60
2023-01-27T18:08:36.815Z,3.50
2023-01-27T18:13:41.231Z,3.50
2023-01-27T18:18:43.815Z,3.50
2023-01-27T18:23:48.369Z,3.40
2023-01-27T18:28:56.582Z,3.50
2023-01-27T18:34:06.007Z,3.40
2023-01-27T18:39:26.763Z,3.50
2023-01-27T18:44:34.537Z,3.50
2023-01-27T18:49:38.875Z,3.50
2023-01-27T18:54:41.663Z,3.40
2023-01-27T18:59:43.366Z,3.40
2023-01-27T19:04:45.901Z,3.40
2023-01-27T19:09:49.033Z,3.50
2023-01-27T19:14:50.879Z,3.40
2023-01-27T19:19:52.916Z,3.40
2023-01-27T19:24:54.716Z,3.40
2023-01-27T19:29:56.475Z,3.40
2023-01-27T19:34:58.204Z,3.40
2023-01-27T19:40:00.994Z,3.30
2023-01-27T19:45:02.791Z,3.30
2023-01-27T19:50:05.723Z,3.50
2023-01-27T19:55:08.131Z,3.40
2023-01-27T20:00:22.707Z,3.40
2023-01-27T20:05:26.804Z,3.30
2023-01-27T20:10:33.351Z,3.30
2023-01-27T20:15:37.785Z,3.30
2023-01-27T20:20:39.690Z,3.30
2023-01-27T20:25:41.991Z,3.30
2023-01-27T20:30:43.983Z,3.30
2023-01-27T20:35:45.841Z,3.30
2023-01-27T20:40:47.801Z,3.40
2023-01-27T20:45:50.201Z,3.40
2023-01-27T20:51:02.865Z,3.30
2023-01-27T20:56:04.920Z,3.40
2023-01-27T21:01:11.968Z,3.40
2023-01-27T21:06:22.624Z,3.30
2023-01-27T21:11:24.855Z,3.30
2023-01-27T21:16:27.957Z,3.30
2023-01-27T21:21:31.500Z,3.20
2023-01-27T21:26:33.529Z,3.20
2023-01-27T21:31:35.265Z,3.30
2023-01-27T21:36:37.975Z,3.20
2023-01-27T21:41:55.064Z,3.20
2023-01-27T21:46:58.110Z,3.20
2023-01-27T21:51:59.998Z,3.10
2023-01-27T21:57:01.787Z,3.10
2023-01-27T22:02:03.639Z,3.20
2023-01-27T22:07:05.829Z,3.10
2023-01-27T22:12:09.858Z,3.10
2023-01-27T22:17:11.780Z,3.00
2023-01-27T22:22:14.002Z,3.00
2023-01-27T22:27:15.717Z,2.90
2023-01-27T22:32:17.557Z,3.00
2023-01-27T22:37:19.338Z,3.00
2023-01-27T22:42:21.172Z,2.90
2023-01-27T22:47:22.919Z,2.90
2023-01-27T22:52:24.640Z,2.80
2023-01-27T22:57:30.271Z,2.80
2023-01-27T23:02:32.319Z,2.80
2023-01-27T23:07:34.136Z,2.80
2023-01-27T23:12:35.888Z,2.80
2023-01-27T23:17:37.713Z,2.70
2023-01-27T23:22:39.839Z,2.70
2023-01-27T23:27:41.958Z,2.80
2023-01-27T23:32:43.723Z,2.70
2023-01-27T23:37:46.927Z,2.70
2023-01-27T23:42:48.699Z,2.60
2023-01-27T23:47:50.477Z,2.60
2023-01-27T23:52:52.173Z,2.50
2023-01-27T23:57:53.890Z,2.50
